Time;durP1;ratioP1;P1;durP2;ratioP2;P2;SDS_P1;SDS_P2;PMS_P1;PMS_P2;Temp;Humidity;BMP_temperature;BMP_pressure;BME280_temperature;BME280_humidity;BME280_pressure;Samples;Min_cycle;Max_cycle;Signal;HPM_P1;HPM_P2
2023/03/06 00:01:02;;;;;;;8.13;2.83;;;5.40;95.80;;;;;;5095224;28;20077;-69
2023/03/06 00:03:28;;;;;;;6.30;2.88;;;5.50;95.80;;;;;;5097932;28;20036;-68
2023/03/06 00:05:56;;;;;;;5.47;2.95;;;5.40;95.80;;;;;;5102196;28;20085;-68
2023/03/06 00:08:22;;;;;;;8.10;3.47;;;5.30;95.90;;;;;;5087219;28;20047;-68
2023/03/06 00:10:48;;;;;;;5.53;3.15;;;5.30;95.90;;;;;;5113827;28;20067;-68
2023/03/06 00:13:15;;;;;;;6.03;3.67;;;5.30;96.00;;;;;;5108400;28;20050;-68
2023/03/06 00:15:41;;;;;;;4.38;3.03;;;5.30;96.00;;;;;;5113041;28;20032;-68
2023/03/06 00:18:07;;;;;;;6.05;4.20;;;5.20;96.10;;;;;;5110967;28;20111;-68
2023/03/06 00:20:34;;;;;;;7.88;4.18;;;5.10;96.20;;;;;;5115469;28;20111;-68
2023/03/06 00:23:00;;;;;;;7.93;4.97;;;5.00;96.30;;;;;;5111234;28;20028;-68
2023/03/06 00:25:25;;;;;;;9.10;5.00;;;4.90;96.40;;;;;;5077226;28;20028;-68
2023/03/06 00:27:51;;;;;;;6.65;4.40;;;4.90;96.50;;;;;;5082623;28;20103;-67
2023/03/06 00:30:20;;;;;;;8.27;4.47;;;4.90;96.60;;;;;;5114364;28;20490;-67
2023/03/06 00:32:47;;;;;;;5.50;3.85;;;4.80;96.60;;;;;;5106639;28;20024;-67
2023/03/06 00:35:13;;;;;;;6.95;4.47;;;4.80;96.60;;;;;;5111881;28;20042;-67
2023/03/06 00:37:39;;;;;;;5.22;3.55;;;4.80;96.70;;;;;;5106958;28;20024;-67
2023/03/06 00:40:07;;;;;;;6.40;3.50;;;4.80;97.00;;;;;;5111506;28;20073;-66
2023/03/06 00:42:33;;;;;;;4.75;2.92;;;4.70;96.80;;;;;;5107712;28;20020;-67
2023/03/06 00:44:58;;;;;;;5.38;2.97;;;4.70;96.80;;;;;;5111659;28;20402;-67
2023/03/06 00:47:24;;;;;;;4.20;2.58;;;4.70;96.90;;;;;;5110890;28;20016;-67
2023/03/06 00:49:49;;;;;;;5.20;2.53;;;4.70;97.00;;;;;;5109394;28;20386;-66
2023/03/06 00:52:15;;;;;;;3.70;2.30;;;4.70;97.00;;;;;;5112585;28;20036;-67
2023/03/06 00:54:41;;;;;;;5.45;3.00;;;4.60;97.00;;;;;;5107850;28;20023;-67
2023/03/06 00:57:07;;;;;;;4.32;2.53;;;4.60;97.10;;;;;;5109929;28;20438;-66
2023/03/06 00:59:32;;;;;;;4.90;2.70;;;4.60;97.10;;;;;;5094535;28;20114;-67
2023/03/06 01:01:58;;;;;;;4.38;2.45;;;4.50;97.10;;;;;;5092802;28;20135;-67
2023/03/06 01:04:24;;;;;;;5.05;3.10;;;4.50;97.20;;;;;;5105140;28;20046;-66
2023/03/06 01:06:49;;;;;;;6.50;3.13;;;4.50;97.30;;;;;;5110727;28;20028;-66
2023/03/06 01:09:15;;;;;;;5.78;2.92;;;4.50;97.50;;;;;;5093011;28;20024;-66
2023/03/06 01:11:41;;;;;;;5.30;3.70;;;4.60;97.30;;;;;;5092153;28;20540;-66
2023/03/06 01:14:06;;;;;;;4.65;3.10;;;4.50;97.20;;;;;;5092360;28;20387;-67
2023/03/06 01:16:32;;;;;;;4.80;3.60;;;4.50;97.30;;;;;;5093953;28;20509;-66
2023/03/06 01:18:58;;;;;;;5.82;3.80;;;4.50;97.30;;;;;;5091039;28;20027;-68
2023/03/06 01:21:23;;;;;;;5.97;4.05;;;4.50;97.40;;;;;;5114262;28;20119;-66
2023/03/06 01:23:50;;;;;;;5.70;3.47;;;4.40;97.40;;;;;;5106336;28;20067;-66
2023/03/06 01:26:16;;;;;;;6.22;4.25;;;4.50;97.50;;;;;;5110261;28;20042;-67
2023/03/06 01:28:42;;;;;;;6.78;3.67;;;4.50;97.50;;;;;;5097092;28;20020;-66
2023/03/06 01:31:08;;;;;;;5.10;3.75;;;4.50;97.60;;;;;;5109272;28;20039;-67
2023/03/06 01:33:36;;;;;;;5.53;4.00;;;4.50;97.60;;;;;;5096423;28;20024;-66
2023/03/06 01:36:06;;;;;;;5.35;3.88;;;4.50;97.70;;;;;;5095279;28;20467;-66
2023/03/06 01:38:33;;;;;;;8.18;4.78;;;4.50;97.70;;;;;;5087308;28;20076;-66
2023/03/06 01:40:58;;;;;;;7.40;4.90;;;4.50;97.70;;;;;;5109944;28;20028;-65
2023/03/06 01:43:32;;;;;;;6.70;4.88;;;4.40;97.70;;;;;;5094032;28;20036;-66
2023/03/06 01:46:21;;;;;;;8.48;5.13;;;4.40;97.80;;;;;;5105129;28;20042;-66
2023/03/06 01:48:51;;;;;;;8.43;5.10;;;4.40;97.90;;;;;;5102463;28;20024;-66
2023/03/06 01:51:16;;;;;;;7.50;5.05;;;4.50;97.90;;;;;;5097753;27;20035;-65
2023/03/06 01:53:42;;;;;;;8.30;6.22;;;4.50;97.90;;;;;;5096079;28;20032;-66
2023/03/06 01:56:12;;;;;;;6.43;4.85;;;4.50;98.00;;;;;;5106458;28;20024;-66
2023/03/06 01:58:38;;;;;;;8.32;5.35;;;4.50;98.00;;;;;;5096542;28;20169;-67
2023/03/06 02:01:04;;;;;;;7.38;5.50;;;4.50;98.10;;;;;;5106192;28;20463;-67
2023/03/06 02:03:31;;;;;;;6.57;5.05;;;4.60;98.10;;;;;;5092990;28;22043;-67
2023/03/06 02:05:58;;;;;;;8.00;5.65;;;4.50;98.10;;;;;;5107442;28;20039;-67
2023/03/06 02:08:25;;;;;;;9.88;5.30;;;4.60;98.20;;;;;;5080826;28;20089;-67
2023/03/06 02:11:04;;;;;;;8.55;5.57;;;4.60;98.20;;;;;;5105519;27;20028;-66
2023/03/06 02:13:30;;;;;;;8.48;5.30;;;4.60;98.40;;;;;;5093661;28;20016;-67
2023/03/06 02:15:56;;;;;;;9.35;5.68;;;4.70;98.30;;;;;;5102732;28;20024;-67
2023/03/06 02:18:22;;;;;;;7.05;5.20;;;4.70;98.30;;;;;;5089546;28;20024;-67
2023/03/06 02:20:53;;;;;;;6.88;5.03;;;4.70;98.40;;;;;;5097716;28;20120;-67
2023/03/06 02:23:29;;;;;;;7.28;5.47;;;4.70;98.40;;;;;;5090791;28;20517;-68
2023/03/06 02:25:55;;;;;;;7.75;5.47;;;4.80;98.40;;;;;;5081497;28;20454;-67
2023/03/06 02:28:22;;;;;;;7.95;5.40;;;4.90;98.50;;;;;;5098253;28;20383;-67
2023/03/06 02:30:51;;;;;;;7.93;5.50;;;4.90;98.50;;;;;;5079387;28;20032;-67
2023/03/06 02:33:20;;;;;;;8.00;5.07;;;4.90;98.50;;;;;;5092476;28;20020;-67
2023/03/06 02:35:51;;;;;;;8.30;4.88;;;4.90;98.50;;;;;;5104118;28;20032;-67
2023/03/06 02:38:19;;;;;;;9.85;5.82;;;5.00;98.60;;;;;;5085687;28;20089;-67
2023/03/06 02:40:48;;;;;;;6.38;4.72;;;5.00;98.60;;;;;;5097359;28;20085;-67
2023/03/06 02:43:17;;;;;;;8.60;4.93;;;5.00;98.60;;;;;;5087425;28;20032;-67
2023/03/06 02:45:45;;;;;;;6.63;4.10;;;5.00;98.60;;;;;;5097709;28;20050;-67
2023/03/06 02:48:13;;;;;;;7.50;4.53;;;5.10;98.60;;;;;;5092246;28;20025;-67
2023/03/06 02:50:40;;;;;;;6.60;4.28;;;5.10;98.60;;;;;;5097141;28;20032;-67
2023/03/06 02:53:07;;;;;;;6.90;4.68;;;5.10;98.50;;;;;;5092210;28;20439;-67
2023/03/06 02:55:34;;;;;;;6.85;4.28;;;5.10;98.50;;;;;;5094259;28;20056;-67
2023/03/06 02:58:00;;;;;;;8.40;4.93;;;5.20;98.80;;;;;;5109666;28;20043;-67
2023/03/06 03:00:26;;;;;;;6.30;4.07;;;5.20;98.60;;;;;;5098581;28;20118;-67
2023/03/06 03:02:52;;;;;;;7.78;4.32;;;5.20;98.60;;;;;;5091982;28;20097;-67
2023/03/06 03:05:18;;;;;;;7.35;4.60;;;5.20;98.60;;;;;;5095968;28;20309;-67
2023/03/06 03:07:44;;;;;;;6.72;3.90;;;5.20;98.60;;;;;;5100644;28;20019;-67
2023/03/06 03:10:10;;;;;;;8.05;5.13;;;5.20;98.60;;;;;;5097622;28;20128;-68
2023/03/06 03:12:36;;;;;;;7.25;4.50;;;5.30;98.70;;;;;;5086325;28;20025;-68
2023/03/06 03:15:02;;;;;;;6.03;3.90;;;5.30;98.70;;;;;;5085627;28;20031;-68
2023/03/06 03:17:28;;;;;;;6.75;4.05;;;5.30;98.70;;;;;;5092160;28;20025;-68
2023/03/06 03:19:54;;;;;;;6.03;3.50;;;5.30;98.70;;;;;;5089948;28;20418;-69
2023/03/06 03:22:19;;;;;;;5.85;3.63;;;5.30;98.70;;;;;;5094191;28;20127;-69
2023/03/06 03:24:46;;;;;;;5.68;4.00;;;5.30;98.60;;;;;;5105334;28;20474;-69
2023/03/06 03:27:13;;;;;;;6.70;3.85;;;5.40;98.70;;;;;;5095514;28;20110;-69
2023/03/06 03:29:39;;;;;;;7.15;4.00;;;5.30;98.70;;;;;;5094247;28;20032;-69
2023/03/06 03:32:05;;;;;;;6.65;4.30;;;5.40;98.70;;;;;;5075609;28;20531;-69
2023/03/06 03:34:31;;;;;;;5.22;3.20;;;5.40;98.70;;;;;;5093571;28;20032;-69
2023/03/06 03:36:56;;;;;;;5.35;3.47;;;5.40;98.70;;;;;;5116232;28;20375;-68
2023/03/06 03:39:22;;;;;;;7.28;3.28;;;5.40;98.70;;;;;;5103817;28;20466;-69
2023/03/06 03:41:48;;;;;;;4.97;3.50;;;5.40;98.70;;;;;;5114633;28;20105;-68
2023/03/06 03:44:13;;;;;;;6.53;3.25;;;5.40;98.60;;;;;;5099376;28;20082;-69
2023/03/06 03:46:39;;;;;;;8.38;3.50;;;5.50;98.60;;;;;;5092572;28;20490;-69
2023/03/06 03:49:05;;;;;;;8.13;3.08;;;5.40;98.60;;;;;;5092459;28;20540;-69
2023/03/06 03:51:30;;;;;;;5.15;3.03;;;5.50;98.70;;;;;;5115863;28;20016;-69
2023/03/06 03:53:56;;;;;;;5.57;2.78;;;5.50;98.60;;;;;;5101220;28;20024;-69
2023/03/06 03:56:23;;;;;;;7.78;3.45;;;5.40;98.60;;;;;;5113834;28;20020;-69
2023/03/06 03:58:49;;;;;;;5.40;3.55;;;5.50;98.70;;;;;;5101641;28;20482;-69
2023/03/06 04:01:15;;;;;;;5.82;3.30;;;5.50;98.70;;;;;;5105113;28;20422;-69
2023/03/06 04:03:41;;;;;;;5.97;3.08;;;5.50;98.70;;;;;;5089269;28;20024;-69
2023/03/06 04:06:06;;;;;;;4.57;2.30;;;5.50;98.70;;;;;;5104092;28;20467;-69
2023/03/06 04:08:32;;;;;;;7.72;3.17;;;5.50;98.70;;;;;;5094762;28;20028;-68
2023/03/06 04:10:58;;;;;;;4.85;2.78;;;5.50;98.70;;;;;;5107110;28;20119;-68
2023/03/06 04:13:23;;;;;;;6.38;3.13;;;5.50;98.70;;;;;;5115645;28;20020;-68
2023/03/06 04:15:51;;;;;;;4.47;3.05;;;5.50;98.70;;;;;;5096971;28;20071;-68
2023/03/06 04:18:18;;;;;;;7.47;3.30;;;5.40;98.70;;;;;;5094909;28;20111;-68
2023/03/06 04:20:45;;;;;;;6.45;3.00;;;5.40;98.80;;;;;;5083731;28;20025;-69
2023/03/06 04:23:11;;;;;;;5.68;2.95;;;5.40;98.80;;;;;;5085588;28;20139;-68
2023/03/06 04:25:37;;;;;;;3.38;2.10;;;5.40;98.80;;;;;;5108220;28;20789;-69
2023/03/06 04:28:04;;;;;;;4.38;2.38;;;5.20;98.80;;;;;;5108777;28;20031;-68
2023/03/06 04:30:29;;;;;;;3.38;1.98;;;5.20;98.80;;;;;;5098992;28;20032;-68
2023/03/06 04:32:55;;;;;;;3.65;2.20;;;5.20;98.70;;;;;;5093577;28;20024;-69
2023/03/06 04:35:21;;;;;;;2.72;1.67;;;5.20;98.70;;;;;;5096355;28;20025;-69
2023/03/06 04:37:46;;;;;;;2.90;1.90;;;5.10;98.70;;;;;;5083707;28;20020;-69
2023/03/06 04:40:18;;;;;;;2.72;1.65;;;5.10;98.60;;;;;;5093750;28;20051;-68
2023/03/06 04:42:44;;;;;;;3.20;2.15;;;5.10;98.60;;;;;;5102429;28;20031;-68
2023/03/06 04:45:10;;;;;;;2.42;2.05;;;5.00;98.60;;;;;;5112727;28;20035;-68
2023/03/06 04:47:35;;;;;;;6.63;2.10;;;5.00;98.60;;;;;;5105603;28;20039;-68
2023/03/06 04:50:01;;;;;;;3.75;2.17;;;5.00;98.60;;;;;;5101272;28;20020;-68
2023/03/06 04:52:27;;;;;;;6.45;2.75;;;4.90;98.60;;;;;;5104342;28;20027;-67
2023/03/06 04:54:52;;;;;;;4.45;2.53;;;4.90;98.70;;;;;;5094403;28;20103;-68
2023/03/06 04:57:18;;;;;;;3.33;1.83;;;4.90;98.60;;;;;;5097907;28;20047;-69
2023/03/06 04:59:44;;;;;;;3.28;1.90;;;4.90;98.60;;;;;;5092245;28;20475;-67
2023/03/06 05:02:09;;;;;;;2.45;1.80;;;4.90;98.60;;;;;;5093995;28;20032;-68
2023/03/06 05:04:35;;;;;;;2.40;1.80;;;4.90;98.70;;;;;;5096947;28;20489;-68
2023/03/06 05:07:00;;;;;;;2.58;1.92;;;4.80;98.70;;;;;;5106158;28;20020;-67
2023/03/06 05:09:26;;;;;;;3.30;2.20;;;4.70;98.70;;;;;;5095357;28;20039;-67
2023/03/06 05:11:52;;;;;;;3.72;2.10;;;4.70;98.70;;;;;;5084947;28;20036;-67
2023/03/06 05:14:18;;;;;;;4.95;2.13;;;4.70;98.70;;;;;;5092955;28;20058;-67
2023/03/06 05:16:43;;;;;;;3.47;2.42;;;4.70;98.80;;;;;;5093623;28;20024;-68
2023/03/06 05:19:09;;;;;;;3.20;2.10;;;4.70;98.80;;;;;;5091175;28;20039;-67
2023/03/06 05:21:34;;;;;;;2.60;1.83;;;4.70;98.80;;;;;;5079197;28;20516;-67
2023/03/06 05:24:00;;;;;;;3.08;1.70;;;4.70;98.80;;;;;;5096428;28;20063;-67
2023/03/06 05:26:25;;;;;;;2.08;1.45;;;4.80;98.80;;;;;;5106913;28;20099;-68
2023/03/06 05:28:52;;;;;;;1.80;1.30;;;4.80;98.70;;;;;;5092536;28;20517;-68
2023/03/06 05:31:17;;;;;;;2.95;2.10;;;4.70;98.60;;;;;;5090465;28;20020;-68
2023/03/06 05:33:43;;;;;;;1.70;1.60;;;4.80;98.60;;;;;;5112414;28;20271;-68
2023/03/06 05:36:09;;;;;;;1.70;1.30;;;4.70;98.60;;;;;;5096621;28;20528;-68
2023/03/06 05:38:35;;;;;;;2.10;1.48;;;4.70;98.60;;;;;;5109270;28;20031;-68
2023/03/06 05:41:00;;;;;;;1.73;1.40;;;4.60;98.60;;;;;;5099225;28;20073;-68
2023/03/06 05:43:26;;;;;;;1.65;1.20;;;4.60;98.60;;;;;;5083074;28;20030;-66
2023/03/06 05:46:03;;;;;;;1.90;1.35;;;4.60;98.60;;;;;;5086834;28;20028;-68
2023/03/06 05:48:28;;;;;;;2.15;1.52;;;4.50;98.60;;;;;;5087999;28;20032;-67
2023/03/06 05:50:56;;;;;;;1.92;1.65;;;4.50;98.60;;;;;;5079505;28;20028;-67
2023/03/06 05:53:22;;;;;;;2.78;1.52;;;4.50;98.70;;;;;;5098978;28;20024;-67
2023/03/06 05:55:59;;;;;;;1.58;1.23;;;4.40;98.70;;;;;;5097459;28;20040;-67
2023/03/06 05:58:26;;;;;;;2.22;1.42;;;4.40;98.70;;;;;;5092419;28;20075;-68
2023/03/06 06:00:52;;;;;;;2.10;1.65;;;4.40;98.70;;;;;;5103028;28;20030;-68
2023/03/06 06:03:18;;;;;;;2.30;1.80;;;4.40;98.80;;;;;;5105223;28;20032;-68
2023/03/06 06:05:44;;;;;;;3.67;2.20;;;4.40;98.80;;;;;;5102863;28;20032;-68
2023/03/06 06:08:09;;;;;;;3.03;2.00;;;4.40;98.80;;;;;;5090173;28;20027;-67
2023/03/06 06:10:35;;;;;;;2.40;1.67;;;4.40;98.90;;;;;;5092784;28;20043;-68
2023/03/06 06:13:00;;;;;;;3.85;1.98;;;4.40;98.90;;;;;;5091581;28;20039;-69
2023/03/06 06:15:27;;;;;;;2.90;2.00;;;4.40;98.90;;;;;;5099939;28;20043;-69
2023/03/06 06:17:54;;;;;;;3.15;2.00;;;4.30;98.90;;;;;;5095338;28;20028;-69
2023/03/06 06:20:19;;;;;;;4.32;1.80;;;4.30;98.90;;;;;;5102561;28;20112;-69
2023/03/06 06:22:45;;;;;;;2.65;1.55;;;4.30;98.90;;;;;;5095714;28;20024;-69
2023/03/06 06:25:11;;;;;;;3.10;1.90;;;4.30;98.90;;;;;;5083459;28;20123;-69
2023/03/06 06:27:36;;;;;;;2.92;1.83;;;4.30;98.90;;;;;;5087085;28;20035;-70
2023/03/06 06:30:03;;;;;;;3.40;2.00;;;4.30;98.90;;;;;;5095675;28;20032;-67
2023/03/06 06:32:29;;;;;;;2.50;1.67;;;4.20;98.90;;;;;;5098972;28;20093;-68
2023/03/06 06:34:54;;;;;;;2.85;1.90;;;4.30;99.00;;;;;;5091596;28;20032;-68
2023/03/06 06:37:20;;;;;;;5.35;3.53;;;4.30;98.90;;;;;;5108781;28;20115;-67
2023/03/06 06:39:45;;;;;;;6.05;3.40;;;4.30;99.00;;;;;;5107804;28;20461;-68
2023/03/06 06:42:11;;;;;;;7.90;5.03;;;4.30;99.00;;;;;;5090678;28;20059;-69
2023/03/06 06:44:37;;;;;;;18.88;8.77;;;4.30;99.00;;;;;;5091444;28;20044;-68
2023/03/06 06:47:04;;;;;;;9.90;5.38;;;4.30;99.00;;;;;;5091391;28;20039;-66
2023/03/06 06:49:30;;;;;;;8.93;4.45;;;4.30;99.10;;;;;;5085796;28;20050;-64
2023/03/06 06:51:56;;;;;;;8.82;4.55;;;4.40;99.10;;;;;;5089762;28;20028;-66
2023/03/06 06:54:22;;;;;;;4.20;2.70;;;4.40;99.10;;;;;;5090739;28;20039;-65
2023/03/06 06:56:47;;;;;;;3.25;2.30;;;4.40;99.10;;;;;;5070495;28;20036;-67
2023/03/06 06:59:13;;;;;;;2.58;1.95;;;4.40;99.10;;;;;;5082341;28;20038;-66
2023/03/06 07:01:39;;;;;;;3.05;1.98;;;4.50;99.30;;;;;;5088987;28;20067;-64
2023/03/06 07:04:04;;;;;;;3.88;2.90;;;4.50;99.10;;;;;;5089504;28;20036;-63
2023/03/06 07:06:30;;;;;;;3.20;2.55;;;4.50;99.10;;;;;;5070782;28;20024;-64
2023/03/06 07:08:55;;;;;;;4.43;3.10;;;4.50;99.10;;;;;;5077523;28;20035;-63
2023/03/06 07:11:21;;;;;;;6.63;2.65;;;4.60;99.10;;;;;;5082744;28;20502;-62
2023/03/06 07:13:47;;;;;;;3.50;2.35;;;4.60;99.10;;;;;;5088731;28;20031;-63
2023/03/06 07:16:16;;;;;;;4.35;2.80;;;4.70;99.20;;;;;;5103573;28;20088;-62
2023/03/06 07:18:41;;;;;;;6.20;3.75;;;4.80;99.20;;;;;;5095017;28;20024;-63
2023/03/06 07:21:08;;;;;;;5.22;3.35;;;4.80;99.10;;;;;;5090994;28;20023;-66
2023/03/06 07:23:33;;;;;;;4.80;3.30;;;4.80;99.10;;;;;;5083842;28;20028;-66
2023/03/06 07:25:59;;;;;;;5.13;3.13;;;4.80;99.10;;;;;;5088596;28;20039;-64
2023/03/06 07:28:25;;;;;;;4.53;2.88;;;4.80;99.10;;;;;;5087705;28;20017;-63
2023/03/06 07:30:50;;;;;;;4.32;2.58;;;4.80;99.10;;;;;;5088838;28;20044;-66
2023/03/06 07:33:16;;;;;;;3.75;2.13;;;4.90;99.00;;;;;;5089310;28;20040;-65
2023/03/06 07:35:43;;;;;;;3.65;2.20;;;4.90;98.90;;;;;;5093419;28;20408;-66
2023/03/06 07:38:09;;;;;;;3.55;2.17;;;4.90;98.90;;;;;;5088930;28;20498;-65
2023/03/06 07:40:35;;;;;;;3.15;2.17;;;4.90;98.80;;;;;;5085965;28;20035;-64
2023/03/06 07:43:00;;;;;;;3.80;2.67;;;4.90;98.80;;;;;;5089183;28;20043;-64
2023/03/06 07:45:26;;;;;;;3.70;2.25;;;4.90;98.70;;;;;;5087356;28;20075;-64
2023/03/06 07:47:53;;;;;;;4.32;2.00;;;4.90;98.70;;;;;;5094300;28;20012;-64
2023/03/06 07:50:19;;;;;;;3.03;2.03;;;5.00;98.70;;;;;;5091924;28;20502;-64
2023/03/06 07:52:46;;;;;;;3.55;2.30;;;5.00;98.60;;;;;;5089666;28;20077;-65
2023/03/06 07:55:12;;;;;;;5.18;2.30;;;5.00;98.60;;;;;;5093777;28;20024;-65
2023/03/06 07:57:38;;;;;;;3.38;1.70;;;5.10;98.60;;;;;;5089637;28;20044;-64
2023/03/06 08:00:05;;;;;;;2.67;1.73;;;5.10;98.50;;;;;;5090550;28;20053;-64
2023/03/06 08:02:31;;;;;;;4.13;2.00;;;5.10;98.40;;;;;;5086863;28;20437;-64
2023/03/06 08:04:56;;;;;;;3.08;2.20;;;5.10;98.40;;;;;;5102517;28;20035;-64
2023/03/06 08:07:22;;;;;;;3.33;2.30;;;5.10;98.40;;;;;;5099489;28;20444;-64
2023/03/06 08:09:48;;;;;;;4.47;2.22;;;5.10;98.30;;;;;;5093880;28;20169;-64
2023/03/06 08:12:14;;;;;;;5.55;2.70;;;5.10;98.20;;;;;;5087981;28;20455;-63
2023/03/06 08:14:39;;;;;;;5.13;3.42;;;5.10;98.10;;;;;;5076787;28;20028;-64
2023/03/06 08:17:05;;;;;;;4.72;3.35;;;5.10;98.00;;;;;;5090376;28;20036;-63
2023/03/06 08:19:31;;;;;;;4.75;3.00;;;5.20;98.00;;;;;;5089504;28;20020;-63
2023/03/06 08:21:56;;;;;;;5.20;3.15;;;5.20;98.10;;;;;;5092690;28;20024;-63
2023/03/06 08:24:22;;;;;;;8.18;3.80;;;5.20;98.10;;;;;;5099652;28;20505;-63
2023/03/06 08:26:47;;;;;;;4.47;3.35;;;5.20;98.00;;;;;;5086684;28;20028;-63
2023/03/06 08:29:14;;;;;;;5.13;4.32;;;5.20;98.00;;;;;;5085239;28;20023;-63
2023/03/06 08:31:44;;;;;;;6.03;4.35;;;5.30;98.00;;;;;;5080209;28;20480;-63
2023/03/06 08:34:16;;;;;;;5.57;3.65;;;5.30;98.00;;;;;;5094382;28;20039;-65
2023/03/06 08:36:42;;;;;;;6.80;4.57;;;5.40;98.00;;;;;;5103265;28;20169;-64
2023/03/06 08:39:07;;;;;;;6.18;4.55;;;5.40;97.90;;;;;;5083207;28;20530;-64
2023/03/06 08:41:35;;;;;;;6.60;4.53;;;5.40;97.80;;;;;;5093995;28;20105;-64
2023/03/06 08:44:01;;;;;;;6.70;4.38;;;5.40;97.80;;;;;;5081158;28;20044;-64
2023/03/06 08:46:29;;;;;;;6.95;4.43;;;5.40;97.80;;;;;;5093647;28;20562;-64
2023/03/06 08:48:56;;;;;;;6.50;4.32;;;5.50;97.80;;;;;;5095286;28;20039;-64
2023/03/06 08:51:22;;;;;;;8.25;4.80;;;5.50;97.80;;;;;;5095457;28;20023;-64
2023/03/06 08:53:48;;;;;;;6.22;4.45;;;5.50;97.70;;;;;;5082921;28;20111;-63
2023/03/06 08:56:19;;;;;;;6.47;4.13;;;5.50;97.70;;;;;;5095529;28;20037;-64
2023/03/06 08:58:45;;;;;;;8.38;4.82;;;5.60;97.60;;;;;;5099931;28;20088;-64
2023/03/06 09:01:33;;;;;;;7.05;4.47;;;5.60;97.60;;;;;;5092529;28;20020;-64
2023/03/06 09:04:00;;;;;;;5.45;4.10;;;5.70;97.50;;;;;;5086144;28;20127;-65
2023/03/06 09:06:30;;;;;;;7.43;3.90;;;5.70;97.50;;;;;;5090581;28;20024;-64
2023/03/06 09:08:55;;;;;;;5.32;3.70;;;5.70;97.50;;;;;;5094064;28;20519;-64
2023/03/06 09:11:23;;;;;;;5.10;3.60;;;5.70;97.50;;;;;;5086227;28;20071;-64
2023/03/06 09:13:49;;;;;;;4.68;3.08;;;5.70;97.50;;;;;;5086865;28;20036;-63
2023/03/06 09:16:15;;;;;;;5.13;2.95;;;5.70;97.40;;;;;;5099836;28;20047;-63
2023/03/06 09:18:41;;;;;;;4.07;2.78;;;5.80;97.40;;;;;;5100923;28;20490;-64
2023/03/06 09:21:08;;;;;;;6.28;3.10;;;5.80;97.40;;;;;;5087852;28;20028;-64
2023/03/06 09:23:34;;;;;;;8.10;3.20;;;5.80;97.40;;;;;;5086534;28;20088;-63
2023/03/06 09:26:00;;;;;;;4.75;3.15;;;5.80;97.40;;;;;;5076152;28;20032;-64
2023/03/06 09:28:26;;;;;;;5.93;3.05;;;5.80;97.40;;;;;;5080384;28;20048;-64
2023/03/06 09:30:52;;;;;;;6.03;3.65;;;5.80;97.40;;;;;;5091409;28;20581;-64
2023/03/06 09:33:18;;;;;;;6.50;3.33;;;5.80;97.40;;;;;;5098464;28;20035;-64
2023/03/06 09:35:53;;;;;;;6.28;3.40;;;5.90;97.40;;;;;;5091228;28;20043;-64
2023/03/06 09:38:21;;;;;;;4.43;3.08;;;5.90;97.30;;;;;;5104240;28;20035;-64
2023/03/06 09:40:59;;;;;;;4.90;2.80;;;5.90;97.30;;;;;;5089926;28;20035;-64
2023/03/06 09:43:30;;;;;;;4.43;2.90;;;5.90;97.10;;;;;;5089103;28;20044;-64
2023/03/06 09:45:57;;;;;;;3.90;2.58;;;6.00;97.20;;;;;;5081861;28;20051;-64
2023/03/06 09:48:38;;;;;;;5.30;2.45;;;6.00;97.20;;;;;;5099895;28;20036;-64
2023/03/06 09:51:14;;;;;;;5.05;2.13;;;6.00;97.20;;;;;;5084675;28;20028;-64
2023/03/06 09:54:05;;;;;;;3.70;2.13;;;6.00;97.20;;;;;;5106099;28;21411;-65
2023/03/06 09:56:33;;;;;;;3.13;2.10;;;6.00;97.10;;;;;;5093473;28;20137;-68
2023/03/06 09:59:20;;;;;;;3.35;2.05;;;6.10;97.10;;;;;;5099355;28;20062;-69
2023/03/06 10:01:55;;;;;;;3.97;1.88;;;6.10;97.10;;;;;;5099463;28;20034;-67
2023/03/06 10:04:40;;;;;;;3.70;2.53;;;6.10;97.10;;;;;;5082418;28;20040;-67
2023/03/06 10:07:23;;;;;;;3.88;2.35;;;6.20;97.10;;;;;;5095608;28;20047;-67
2023/03/06 10:09:56;;;;;;;3.95;2.50;;;6.10;97.00;;;;;;5093533;28;20127;-67
2023/03/06 10:12:28;;;;;;;7.50;2.13;;;6.20;96.90;;;;;;5091062;28;20038;-67
2023/03/06 10:15:16;;;;;;;4.13;1.80;;;6.20;96.90;;;;;;5092789;28;20032;-67
2023/03/06 10:17:43;;;;;;;4.30;2.10;;;6.10;96.80;;;;;;5095121;28;20043;-67
2023/03/06 10:20:35;;;;;;;4.38;2.17;;;6.10;96.70;;;;;;5099590;27;20127;-68
2023/03/06 10:23:03;;;;;;;4.53;2.53;;;6.10;96.70;;;;;;5101218;28;20169;-67
2023/03/06 10:25:49;;;;;;;5.55;2.40;;;6.10;96.60;;;;;;5099902;28;20039;-67
2023/03/06 10:28:21;;;;;;;4.63;2.25;;;6.10;96.60;;;;;;5085483;28;20023;-67
2023/03/06 10:31:14;;;;;;;6.03;2.88;;;6.10;96.60;;;;;;5087780;28;20384;-66
2023/03/06 10:34:07;;;;;;;3.90;2.80;;;6.10;96.50;;;;;;5087062;28;20032;-68
2023/03/06 10:36:34;;;;;;;3.63;2.70;;;6.10;96.50;;;;;;5092040;28;20717;-66
2023/03/06 10:39:08;;;;;;;5.35;3.08;;;6.10;96.50;;;;;;5086571;28;20055;-66
2023/03/06 10:41:37;;;;;;;5.88;3.13;;;6.10;96.50;;;;;;5089071;28;20047;-66
2023/03/06 10:44:03;;;;;;;6.03;3.90;;;6.10;96.50;;;;;;5085423;28;20469;-67
2023/03/06 10:46:31;;;;;;;4.88;3.35;;;6.20;96.50;;;;;;5091894;28;20063;-67
2023/03/06 10:48:59;;;;;;;8.98;3.47;;;6.30;96.40;;;;;;5093341;28;20036;-67
2023/03/06 10:51:26;;;;;;;5.85;3.33;;;6.20;96.30;;;;;;5082632;28;20031;-67
2023/03/06 10:53:57;;;;;;;5.53;2.72;;;6.20;96.30;;;;;;5090036;28;20024;-67
2023/03/06 10:56:30;;;;;;;5.15;3.30;;;6.20;96.20;;;;;;5090990;28;20024;-67
2023/03/06 10:59:10;;;;;;;5.25;3.15;;;6.20;96.10;;;;;;5083035;28;20425;-67
2023/03/06 11:01:35;;;;;;;5.30;2.60;;;6.30;96.20;;;;;;5086403;28;20024;-67
2023/03/06 11:04:27;;;;;;;3.95;2.58;;;6.30;96.20;;;;;;5092396;28;20032;-66
2023/03/06 11:07:13;;;;;;;4.85;2.85;;;6.30;96.40;;;;;;5081195;28;20422;-67
2023/03/06 11:09:39;;;;;;;;;;;6.30;96.20;;;;;;5088736;28;20028;-67
2023/03/06 11:12:38;;;;;;;4.78;2.80;;;6.30;96.20;;;;;;5101394;28;20410;-67
2023/03/06 11:15:13;;;;;;;5.10;2.80;;;6.40;96.10;;;;;;5090730;28;20384;-67
2023/03/06 11:17:59;;;;;;;4.45;2.22;;;6.40;96.00;;;;;;5093990;28;20058;-67
2023/03/06 11:20:26;;;;;;;6.32;2.38;;;6.40;96.00;;;;;;5080356;28;20361;-67
2023/03/06 11:23:11;;;;;;;5.40;2.30;;;6.50;96.00;;;;;;5084198;28;20027;-67
2023/03/06 11:26:01;;;;;;;3.85;2.63;;;6.60;96.00;;;;;;5100026;28;20035;-67
2023/03/06 11:28:48;;;;;;;6.10;3.10;;;6.50;95.90;;;;;;5105940;28;20024;-67
2023/03/06 11:31:24;;;;;;;4.85;2.58;;;6.60;95.90;;;;;;5090745;28;20050;-68
2023/03/06 11:33:55;;;;;;;5.00;2.97;;;6.60;95.90;;;;;;5093810;28;20483;-68
2023/03/06 11:36:37;;;;;;;3.50;2.20;;;6.60;95.80;;;;;;5091443;28;20386;-68
2023/03/06 11:39:24;;;;;;;5.47;2.63;;;6.70;95.80;;;;;;5104919;28;20032;-68
2023/03/06 11:42:13;;;;;;;4.50;2.20;;;6.70;95.80;;;;;;5079385;28;20446;-67
2023/03/06 11:45:16;;;;;;;8.10;2.88;;;6.80;95.70;;;;;;5099412;28;20510;-67
2023/03/06 11:47:53;;;;;;;4.90;2.40;;;6.80;95.60;;;;;;5095282;28;20348;-66
2023/03/06 11:50:22;;;;;;;5.80;2.13;;;6.80;95.40;;;;;;5095030;28;20391;-68
2023/03/06 11:52:52;;;;;;;3.88;2.13;;;6.80;95.40;;;;;;5088224;28;20371;-68
2023/03/06 11:55:56;;;;;;;7.10;2.70;;;6.80;95.30;;;;;;5103089;28;20119;-68
2023/03/06 11:58:52;;;;;;;4.50;2.13;;;6.90;95.30;;;;;;5100838;28;20062;-69
2023/03/06 12:01:45;;;;;;;5.57;1.83;;;6.80;95.20;;;;;;5108413;28;20028;-68
2023/03/06 12:04:44;;;;;;;2.93;2.00;;;6.90;95.10;;;;;;5104442;28;20403;-68
2023/03/06 12:07:33;;;;;;;3.42;2.10;;;6.90;95.10;;;;;;5096585;28;20032;-69
2023/03/06 12:10:28;;;;;;;4.95;2.25;;;6.90;95.00;;;;;;5091258;28;20380;-67
2023/03/06 12:13:33;;;;;;;2.88;1.95;;;7.00;95.00;;;;;;5095573;28;20375;-68
2023/03/06 12:16:26;;;;;;;8.30;3.45;;;7.10;94.90;;;;;;5067256;28;20130;-67
2023/03/06 12:19:08;;;;;;;3.03;2.45;;;7.10;94.70;;;;;;5089392;28;20571;-68
2023/03/06 12:22:11;;;;;;;2.85;2.00;;;7.20;94.70;;;;;;5096648;28;20024;-68
2023/03/06 12:24:50;;;;;;;3.90;2.45;;;7.20;94.60;;;;;;5106310;28;20035;-68
2023/03/06 12:27:29;;;;;;;4.30;2.83;;;7.30;94.60;;;;;;5112799;28;20390;-68
2023/03/06 12:30:12;;;;;;;6.47;2.85;;;7.40;94.40;;;;;;5112590;28;20512;-68
2023/03/06 12:32:49;;;;;;;6.28;2.78;;;7.40;94.40;;;;;;5112890;28;20055;-67
2023/03/06 12:35:42;;;;;;;4.15;3.25;;;7.40;94.30;;;;;;5077624;28;20126;-67
2023/03/06 12:38:32;;;;;;;5.88;2.97;;;7.50;94.20;;;;;;5105412;28;20471;-66
2023/03/06 12:41:04;;;;;;;4.63;2.90;;;7.50;93.90;;;;;;5096706;28;20032;-67
2023/03/06 12:43:42;;;;;;;4.60;3.22;;;7.50;93.90;;;;;;5095726;28;20461;-68
2023/03/06 12:46:17;;;;;;;4.78;2.80;;;7.60;93.80;;;;;;5103731;28;20059;-68
2023/03/06 12:48:55;;;;;;;3.58;2.58;;;7.60;93.80;;;;;;5089796;28;20417;-67
2023/03/06 12:51:21;;;;;;;4.68;2.83;;;7.60;93.70;;;;;;5093986;28;20024;-68
2023/03/06 12:53:48;;;;;;;5.43;3.45;;;7.70;93.60;;;;;;5102330;28;20375;-67
2023/03/06 12:56:17;;;;;;;6.95;3.60;;;7.60;93.10;;;;;;5104914;28;20035;-67
2023/03/06 12:58:55;;;;;;;6.88;2.90;;;7.60;93.30;;;;;;5110019;28;20065;-67
2023/03/06 13:01:55;;;;;;;5.55;3.80;;;7.60;93.30;;;;;;5112081;28;20027;-68
2023/03/06 13:04:30;;;;;;;5.55;3.22;;;7.60;93.10;;;;;;5103835;28;20756;-68
2023/03/06 13:06:58;;;;;;;;;;;7.60;92.90;;;;;;5097962;28;20024;-67
2023/03/06 13:09:56;;;;;;;5.25;2.65;;;7.50;92.80;;;;;;5103314;28;20361;-68
2023/03/06 13:12:45;;;;;;;4.57;2.60;;;7.50;93.00;;;;;;5097791;28;20051;-69